sensor_id;sensor_type;location;lat;lon;timestamp;P1;durP1;ratioP1;P2;durP2;ratioP2
83560;SDS011;73534;52.584;13.392;2024-01-11T00:00:28;18.80;;;10.23;;
83560;SDS011;73534;52.584;13.392;2024-01-11T00:02:53;20.00;;;10.77;;
83560;SDS011;73534;52.584;13.392;2024-01-11T00:05:19;18.27;;;9.13;;
83560;SDS011;73534;52.584;13.392;2024-01-11T00:07:44;20.67;;;9.52;;
83560;SDS011;73534;52.584;13.392;2024-01-11T00:10:09;21.15;;;10.70;;
83560;SDS011;73534;52.584;13.392;2024-01-11T00:12:35;19.75;;;10.32;;
83560;SDS011;73534;52.584;13.392;2024-01-11T00:15:00;14.52;;;9.65;;
83560;SDS011;73534;52.584;13.392;2024-01-11T00:17:25;16.13;;;9.27;;
83560;SDS011;73534;52.584;13.392;2024-01-11T00:19:51;22.13;;;10.07;;
83560;SDS011;73534;52.584;13.392;2024-01-11T00:22:17;20.23;;;10.32;;
83560;SDS011;73534;52.584;13.392;2024-01-11T00:24:42;20.17;;;9.88;;
83560;SDS011;73534;52.584;13.392;2024-01-11T00:27:07;24.40;;;10.10;;
83560;SDS011;73534;52.584;13.392;2024-01-11T00:29:33;16.15;;;8.05;;
83560;SDS011;73534;52.584;13.392;2024-01-11T00:31:59;15.43;;;8.93;;
83560;SDS011;73534;52.584;13.392;2024-01-11T00:34:25;14.75;;;7.60;;
83560;SDS011;73534;52.584;13.392;2024-01-11T00:36:50;19.83;;;9.75;;
83560;SDS011;73534;52.584;13.392;2024-01-11T00:39:15;16.80;;;9.13;;
83560;SDS011;73534;52.584;13.392;2024-01-11T00:41:40;22.17;;;9.13;;
83560;SDS011;73534;52.584;13.392;2024-01-11T00:44:06;18.85;;;8.75;;
83560;SDS011;73534;52.584;13.392;2024-01-11T00:46:32;20.90;;;8.23;;
83560;SDS011;73534;52.584;13.392;2024-01-11T00:48:57;15.32;;;8.48;;
83560;SDS011;73534;52.584;13.392;2024-01-11T00:51:23;16.77;;;8.40;;
83560;SDS011;73534;52.584;13.392;2024-01-11T00:53:48;18.70;;;7.95;;
83560;SDS011;73534;52.584;13.392;2024-01-11T00:56:19;16.65;;;9.25;;
83560;SDS011;73534;52.584;13.392;2024-01-11T00:58:45;18.98;;;9.43;;
83560;SDS011;73534;52.584;13.392;2024-01-11T01:01:10;16.52;;;9.70;;
83560;SDS011;73534;52.584;13.392;2024-01-11T01:03:36;20.48;;;11.38;;
83560;SDS011;73534;52.584;13.392;2024-01-11T01:06:01;22.42;;;10.32;;
83560;SDS011;73534;52.584;13.392;2024-01-11T01:08:27;21.00;;;10.57;;
83560;SDS011;73534;52.584;13.392;2024-01-11T01:10:52;17.55;;;9.63;;
83560;SDS011;73534;52.584;13.392;2024-01-11T01:13:18;20.02;;;9.57;;
83560;SDS011;73534;52.584;13.392;2024-01-11T01:15:43;17.42;;;9.85;;
83560;SDS011;73534;52.584;13.392;2024-01-11T01:18:08;17.52;;;8.95;;
83560;SDS011;73534;52.584;13.392;2024-01-11T01:20:34;13.50;;;9.07;;
83560;SDS011;73534;52.584;13.392;2024-01-11T01:22:59;20.88;;;9.10;;
83560;SDS011;73534;52.584;13.392;2024-01-11T01:25:24;18.20;;;9.65;;
83560;SDS011;73534;52.584;13.392;2024-01-11T01:27:50;16.63;;;9.00;;
83560;SDS011;73534;52.584;13.392;2024-01-11T01:30:15;18.92;;;9.95;;
83560;SDS011;73534;52.584;13.392;2024-01-11T01:32:41;18.73;;;9.93;;
83560;SDS011;73534;52.584;13.392;2024-01-11T01:35:06;20.05;;;10.18;;
83560;SDS011;73534;52.584;13.392;2024-01-11T01:37:32;17.92;;;9.95;;
83560;SDS011;73534;52.584;13.392;2024-01-11T01:39:57;22.15;;;10.02;;
83560;SDS011;73534;52.584;13.392;2024-01-11T01:42:23;18.00;;;9.95;;
83560;SDS011;73534;52.584;13.392;2024-01-11T01:44:48;14.68;;;8.55;;
83560;SDS011;73534;52.584;13.392;2024-01-11T01:47:13;21.58;;;9.98;;
83560;SDS011;73534;52.584;13.392;2024-01-11T01:49:39;19.65;;;9.45;;
83560;SDS011;73534;52.584;13.392;2024-01-11T01:52:04;21.90;;;9.07;;
83560;SDS011;73534;52.584;13.392;2024-01-11T01:54:31;18.13;;;7.80;;
83560;SDS011;73534;52.584;13.392;2024-01-11T01:56:57;14.73;;;7.93;;
83560;SDS011;73534;52.584;13.392;2024-01-11T01:59:22;16.77;;;7.82;;
83560;SDS011;73534;52.584;13.392;2024-01-11T02:01:49;18.05;;;8.20;;
83560;SDS011;73534;52.584;13.392;2024-01-11T02:04:14;17.95;;;8.63;;
83560;SDS011;73534;52.584;13.392;2024-01-11T02:06:40;17.48;;;9.45;;
83560;SDS011;73534;52.584;13.392;2024-01-11T02:09:05;17.73;;;8.45;;
83560;SDS011;73534;52.584;13.392;2024-01-11T02:11:33;17.05;;;9.13;;
83560;SDS011;73534;52.584;13.392;2024-01-11T02:13:58;20.73;;;9.43;;
83560;SDS011;73534;52.584;13.392;2024-01-11T02:16:24;19.33;;;9.02;;
83560;SDS011;73534;52.584;13.392;2024-01-11T02:18:49;21.77;;;10.65;;
83560;SDS011;73534;52.584;13.392;2024-01-11T02:21:15;17.70;;;8.45;;
83560;SDS011;73534;52.584;13.392;2024-01-11T02:26:36;17.48;;;9.82;;
83560;SDS011;73534;52.584;13.392;2024-01-11T02:29:02;18.00;;;9.02;;
83560;SDS011;73534;52.584;13.392;2024-01-11T02:31:27;22.08;;;9.40;;
83560;SDS011;73534;52.584;13.392;2024-01-11T02:33:53;21.27;;;10.15;;
83560;SDS011;73534;52.584;13.392;2024-01-11T02:36:19;19.42;;;9.07;;
83560;SDS011;73534;52.584;13.392;2024-01-11T02:38:45;13.90;;;7.40;;
83560;SDS011;73534;52.584;13.392;2024-01-11T02:41:11;19.17;;;8.77;;
83560;SDS011;73534;52.584;13.392;2024-01-11T02:43:36;18.52;;;8.23;;
83560;SDS011;73534;52.584;13.392;2024-01-11T02:46:02;17.80;;;8.07;;
83560;SDS011;73534;52.584;13.392;2024-01-11T02:48:28;19.77;;;8.30;;
83560;SDS011;73534;52.584;13.392;2024-01-11T02:50:54;17.33;;;9.75;;
83560;SDS011;73534;52.584;13.392;2024-01-11T02:53:20;17.77;;;9.15;;
83560;SDS011;73534;52.584;13.392;2024-01-11T02:55:45;19.73;;;9.38;;
83560;SDS011;73534;52.584;13.392;2024-01-11T02:58:10;18.80;;;10.05;;
83560;SDS011;73534;52.584;13.392;2024-01-11T03:00:35;20.35;;;9.70;;
83560;SDS011;73534;52.584;13.392;2024-01-11T03:03:01;23.10;;;10.10;;
83560;SDS011;73534;52.584;13.392;2024-01-11T03:05:26;18.45;;;9.00;;
83560;SDS011;73534;52.584;13.392;2024-01-11T03:07:51;20.08;;;8.57;;
83560;SDS011;73534;52.584;13.392;2024-01-11T03:10:17;18.73;;;9.75;;
83560;SDS011;73534;52.584;13.392;2024-01-11T03:12:42;17.02;;;9.93;;
83560;SDS011;73534;52.584;13.392;2024-01-11T03:15:08;24.27;;;10.48;;
83560;SDS011;73534;52.584;13.392;2024-01-11T03:17:33;15.05;;;8.55;;
83560;SDS011;73534;52.584;13.392;2024-01-11T03:19:59;23.63;;;8.63;;
83560;SDS011;73534;52.584;13.392;2024-01-11T03:22:24;16.52;;;9.07;;
83560;SDS011;73534;52.584;13.392;2024-01-11T03:24:50;16.33;;;8.52;;
83560;SDS011;73534;52.584;13.392;2024-01-11T03:27:15;20.70;;;9.38;;
83560;SDS011;73534;52.584;13.392;2024-01-11T03:29:40;22.00;;;9.90;;
83560;SDS011;73534;52.584;13.392;2024-01-11T03:32:06;20.02;;;10.07;;
83560;SDS011;73534;52.584;13.392;2024-01-11T03:34:31;20.60;;;9.85;;
83560;SDS011;73534;52.584;13.392;2024-01-11T03:36:57;22.25;;;9.98;;
83560;SDS011;73534;52.584;13.392;2024-01-11T03:39:22;16.52;;;8.90;;
83560;SDS011;73534;52.584;13.392;2024-01-11T03:41:47;19.50;;;10.63;;
83560;SDS011;73534;52.584;13.392;2024-01-11T03:44:12;21.67;;;9.82;;
83560;SDS011;73534;52.584;13.392;2024-01-11T03:46:38;18.73;;;8.98;;
83560;SDS011;73534;52.584;13.392;2024-01-11T03:49:03;21.77;;;10.48;;
83560;SDS011;73534;52.584;13.392;2024-01-11T03:51:29;18.35;;;9.57;;
83560;SDS011;73534;52.584;13.392;2024-01-11T03:53:54;19.25;;;9.68;;
83560;SDS011;73534;52.584;13.392;2024-01-11T03:56:19;13.55;;;7.25;;
83560;SDS011;73534;52.584;13.392;2024-01-11T03:58:44;17.20;;;8.13;;
83560;SDS011;73534;52.584;13.392;2024-01-11T04:01:10;16.63;;;8.10;;
83560;SDS011;73534;52.584;13.392;2024-01-11T04:03:35;17.45;;;9.07;;
83560;SDS011;73534;52.584;13.392;2024-01-11T04:06:01;15.23;;;6.95;;
83560;SDS011;73534;52.584;13.392;2024-01-11T04:08:27;14.90;;;6.93;;
83560;SDS011;73534;52.584;13.392;2024-01-11T04:10:52;20.50;;;8.30;;
83560;SDS011;73534;52.584;13.392;2024-01-11T04:13:18;13.80;;;8.40;;
83560;SDS011;73534;52.584;13.392;2024-01-11T04:15:43;16.08;;;8.38;;
83560;SDS011;73534;52.584;13.392;2024-01-11T04:18:08;18.80;;;8.02;;
83560;SDS011;73534;52.584;13.392;2024-01-11T04:20:34;14.98;;;7.97;;
83560;SDS011;73534;52.584;13.392;2024-01-11T04:22:59;16.13;;;7.43;;
83560;SDS011;73534;52.584;13.392;2024-01-11T04:25:24;18.15;;;8.70;;
83560;SDS011;73534;52.584;13.392;2024-01-11T04:27:49;13.18;;;7.05;;
83560;SDS011;73534;52.584;13.392;2024-01-11T04:30:15;20.27;;;9.63;;
83560;SDS011;73534;52.584;13.392;2024-01-11T04:32:40;18.75;;;8.35;;
83560;SDS011;73534;52.584;13.392;2024-01-11T04:35:05;15.55;;;7.85;;
83560;SDS011;73534;52.584;13.392;2024-01-11T04:37:31;20.77;;;9.98;;
83560;SDS011;73534;52.584;13.392;2024-01-11T04:39:56;24.35;;;9.27;;
83560;SDS011;73534;52.584;13.392;2024-01-11T04:42:25;17.92;;;7.95;;
83560;SDS011;73534;52.584;13.392;2024-01-11T04:44:51;23.30;;;9.10;;
83560;SDS011;73534;52.584;13.392;2024-01-11T04:47:17;16.58;;;7.10;;
83560;SDS011;73534;52.584;13.392;2024-01-11T04:49:42;20.50;;;8.05;;
83560;SDS011;73534;52.584;13.392;2024-01-11T04:52:07;22.02;;;9.43;;
83560;SDS011;73534;52.584;13.392;2024-01-11T04:54:33;17.17;;;8.20;;
83560;SDS011;73534;52.584;13.392;2024-01-11T04:56:58;19.75;;;8.80;;
83560;SDS011;73534;52.584;13.392;2024-01-11T04:59:24;22.20;;;11.10;;
83560;SDS011;73534;52.584;13.392;2024-01-11T05:01:49;20.88;;;9.93;;
83560;SDS011;73534;52.584;13.392;2024-01-11T05:04:14;21.98;;;9.40;;
83560;SDS011;73534;52.584;13.392;2024-01-11T05:06:39;22.55;;;8.60;;
83560;SDS011;73534;52.584;13.392;2024-01-11T05:09:05;23.33;;;9.55;;
83560;SDS011;73534;52.584;13.392;2024-01-11T05:11:30;16.88;;;9.55;;
83560;SDS011;73534;52.584;13.392;2024-01-11T05:13:55;25.58;;;10.05;;
83560;SDS011;73534;52.584;13.392;2024-01-11T05:16:24;16.70;;;8.95;;
83560;SDS011;73534;52.584;13.392;2024-01-11T05:18:51;20.88;;;8.93;;
83560;SDS011;73534;52.584;13.392;2024-01-11T05:21:17;22.95;;;9.73;;
83560;SDS011;73534;52.584;13.392;2024-01-11T05:23:43;27.08;;;9.93;;
83560;SDS011;73534;52.584;13.392;2024-01-11T05:26:09;24.13;;;9.10;;
83560;SDS011;73534;52.584;13.392;2024-01-11T05:28:34;20.63;;;9.20;;
83560;SDS011;73534;52.584;13.392;2024-01-11T05:31:00;21.48;;;9.98;;
83560;SDS011;73534;52.584;13.392;2024-01-11T05:33:25;21.60;;;10.10;;
83560;SDS011;73534;52.584;13.392;2024-01-11T05:35:50;23.50;;;11.00;;
83560;SDS011;73534;52.584;13.392;2024-01-11T05:38:17;28.30;;;11.63;;
83560;SDS011;73534;52.584;13.392;2024-01-11T05:40:42;20.90;;;9.48;;
83560;SDS011;73534;52.584;13.392;2024-01-11T05:43:07;22.40;;;9.20;;
83560;SDS011;73534;52.584;13.392;2024-01-11T05:45:32;21.73;;;9.65;;
83560;SDS011;73534;52.584;13.392;2024-01-11T05:47:58;31.67;;;11.20;;
83560;SDS011;73534;52.584;13.392;2024-01-11T05:50:24;26.15;;;10.05;;
83560;SDS011;73534;52.584;13.392;2024-01-11T05:52:49;31.58;;;11.20;;
83560;SDS011;73534;52.584;13.392;2024-01-11T05:55:16;24.50;;;10.40;;
83560;SDS011;73534;52.584;13.392;2024-01-11T05:57:41;27.73;;;11.93;;
83560;SDS011;73534;52.584;13.392;2024-01-11T06:00:06;25.52;;;11.63;;
83560;SDS011;73534;52.584;13.392;2024-01-11T06:02:32;24.92;;;9.75;;
83560;SDS011;73534;52.584;13.392;2024-01-11T06:04:57;20.60;;;10.52;;
83560;SDS011;73534;52.584;13.392;2024-01-11T06:07:22;20.40;;;10.48;;
83560;SDS011;73534;52.584;13.392;2024-01-11T06:09:48;25.33;;;12.23;;
83560;SDS011;73534;52.584;13.392;2024-01-11T06:12:13;23.23;;;11.00;;
83560;SDS011;73534;52.584;13.392;2024-01-11T06:14:39;28.15;;;11.27;;
83560;SDS011;73534;52.584;13.392;2024-01-11T06:17:04;24.20;;;10.55;;
83560;SDS011;73534;52.584;13.392;2024-01-11T06:19:29;28.05;;;11.48;;
83560;SDS011;73534;52.584;13.392;2024-01-11T06:21:55;31.58;;;11.80;;
83560;SDS011;73534;52.584;13.392;2024-01-11T06:24:20;30.30;;;11.10;;
83560;SDS011;73534;52.584;13.392;2024-01-11T06:26:45;28.73;;;11.13;;
83560;SDS011;73534;52.584;13.392;2024-01-11T06:29:11;28.08;;;11.23;;
83560;SDS011;73534;52.584;13.392;2024-01-11T06:31:36;26.48;;;10.63;;
83560;SDS011;73534;52.584;13.392;2024-01-11T06:34:01;30.23;;;12.32;;
83560;SDS011;73534;52.584;13.392;2024-01-11T06:36:27;35.03;;;12.27;;
83560;SDS011;73534;52.584;13.392;2024-01-11T06:38:52;33.28;;;13.05;;
83560;SDS011;73534;52.584;13.392;2024-01-11T06:41:17;25.15;;;11.98;;
83560;SDS011;73534;52.584;13.392;2024-01-11T06:43:43;25.60;;;12.27;;
83560;SDS011;73534;52.584;13.392;2024-01-11T06:46:08;36.67;;;13.35;;
83560;SDS011;73534;52.584;13.392;2024-01-11T06:48:35;30.13;;;11.45;;
83560;SDS011;73534;52.584;13.392;2024-01-11T06:51:00;29.85;;;11.32;;
83560;SDS011;73534;52.584;13.392;2024-01-11T06:53:26;31.98;;;13.45;;
83560;SDS011;73534;52.584;13.392;2024-01-11T06:55:51;33.35;;;12.93;;
83560;SDS011;73534;52.584;13.392;2024-01-11T06:58:17;36.60;;;14.10;;
83560;SDS011;73534;52.584;13.392;2024-01-11T07:00:55;27.52;;;11.32;;
83560;SDS011;73534;52.584;13.392;2024-01-11T07:03:20;30.67;;;13.73;;
83560;SDS011;73534;52.584;13.392;2024-01-11T07:05:46;31.17;;;13.32;;
83560;SDS011;73534;52.584;13.392;2024-01-11T07:08:11;31.80;;;14.27;;
83560;SDS011;73534;52.584;13.392;2024-01-11T07:10:36;35.85;;;13.95;;
83560;SDS011;73534;52.584;13.392;2024-01-11T07:13:02;38.47;;;14.80;;
83560;SDS011;73534;52.584;13.392;2024-01-11T07:15:47;34.38;;;14.68;;
83560;SDS011;73534;52.584;13.392;2024-01-11T07:18:13;33.90;;;13.68;;
83560;SDS011;73534;52.584;13.392;2024-01-11T07:20:41;33.63;;;13.13;;
83560;SDS011;73534;52.584;13.392;2024-01-11T07:23:06;35.65;;;12.90;;
83560;SDS011;73534;52.584;13.392;2024-01-11T07:25:32;35.17;;;14.65;;
83560;SDS011;73534;52.584;13.392;2024-01-11T07:38:56;37.08;;;15.07;;
83560;SDS011;73534;52.584;13.392;2024-01-11T07:41:18;32.03;;;13.27;;
83560;SDS011;73534;52.584;13.392;2024-01-11T07:43:46;42.38;;;14.57;;
83560;SDS011;73534;52.584;13.392;2024-01-11T07:52:00;35.08;;;13.73;;
83560;SDS011;73534;52.584;13.392;2024-01-11T07:54:25;42.88;;;15.90;;
83560;SDS011;73534;52.584;13.392;2024-01-11T07:56:50;42.42;;;15.88;;
83560;SDS011;73534;52.584;13.392;2024-01-11T07:59:16;39.22;;;15.27;;
83560;SDS011;73534;52.584;13.392;2024-01-11T08:01:42;33.88;;;14.95;;
83560;SDS011;73534;52.584;13.392;2024-01-11T08:04:07;37.33;;;15.23;;
83560;SDS011;73534;52.584;13.392;2024-01-11T08:06:32;34.33;;;14.73;;
83560;SDS011;73534;52.584;13.392;2024-01-11T08:08:57;31.58;;;15.95;;
83560;SDS011;73534;52.584;13.392;2024-01-11T08:11:23;37.58;;;14.70;;
83560;SDS011;73534;52.584;13.392;2024-01-11T08:13:48;31.52;;;14.23;;
83560;SDS011;73534;52.584;13.392;2024-01-11T08:16:17;31.20;;;12.73;;
83560;SDS011;73534;52.584;13.392;2024-01-11T08:18:42;38.22;;;14.15;;
83560;SDS011;73534;52.584;13.392;2024-01-11T08:21:08;34.63;;;14.40;;
83560;SDS011;73534;52.584;13.392;2024-01-11T08:23:34;37.00;;;15.35;;
83560;SDS011;73534;52.584;13.392;2024-01-11T08:26:00;36.97;;;13.93;;
83560;SDS011;73534;52.584;13.392;2024-01-11T08:28:26;33.63;;;15.52;;
83560;SDS011;73534;52.584;13.392;2024-01-11T08:30:57;37.05;;;14.23;;
83560;SDS011;73534;52.584;13.392;2024-01-11T08:33:22;32.53;;;14.32;;
83560;SDS011;73534;52.584;13.392;2024-01-11T08:35:48;30.00;;;13.50;;
83560;SDS011;73534;52.584;13.392;2024-01-11T08:38:13;34.00;;;14.20;;
83560;SDS011;73534;52.584;13.392;2024-01-11T08:40:39;30.67;;;12.75;;
83560;SDS011;73534;52.584;13.392;2024-01-11T08:43:04;32.80;;;13.23;;
83560;SDS011;73534;52.584;13.392;2024-01-11T08:45:31;34.70;;;13.40;;
83560;SDS011;73534;52.584;13.392;2024-01-11T08:47:56;29.52;;;14.30;;
83560;SDS011;73534;52.584;13.392;2024-01-11T08:50:22;35.85;;;14.07;;
83560;SDS011;73534;52.584;13.392;2024-01-11T08:52:47;36.40;;;16.20;;
83560;SDS011;73534;52.584;13.392;2024-01-11T08:55:13;33.70;;;15.10;;
83560;SDS011;73534;52.584;13.392;2024-01-11T08:57:38;35.85;;;14.55;;
83560;SDS011;73534;52.584;13.392;2024-01-11T09:00:04;30.27;;;14.15;;
83560;SDS011;73534;52.584;13.392;2024-01-11T09:02:31;30.85;;;14.48;;
83560;SDS011;73534;52.584;13.392;2024-01-11T09:04:56;32.53;;;14.73;;
83560;SDS011;73534;52.584;13.392;2024-01-11T09:07:21;33.75;;;15.10;;
83560;SDS011;73534;52.584;13.392;2024-01-11T09:09:47;35.38;;;13.95;;
83560;SDS011;73534;52.584;13.392;2024-01-11T09:12:12;34.25;;;15.15;;
83560;SDS011;73534;52.584;13.392;2024-01-11T09:14:37;32.40;;;15.05;;
83560;SDS011;73534;52.584;13.392;2024-01-11T09:17:04;35.92;;;14.60;;
83560;SDS011;73534;52.584;13.392;2024-01-11T09:19:31;34.20;;;15.75;;
83560;SDS011;73534;52.584;13.392;2024-01-11T09:21:58;29.00;;;14.10;;
83560;SDS011;73534;52.584;13.392;2024-01-11T09:24:24;29.30;;;15.20;;
83560;SDS011;73534;52.584;13.392;2024-01-11T09:26:50;36.03;;;14.55;;
83560;SDS011;73534;52.584;13.392;2024-01-11T09:29:16;28.50;;;13.50;;
83560;SDS011;73534;52.584;13.392;2024-01-11T09:31:41;29.10;;;14.40;;
83560;SDS011;73534;52.584;13.392;2024-01-11T09:34:07;32.92;;;14.23;;
83560;SDS011;73534;52.584;13.392;2024-01-11T09:36:32;32.58;;;13.57;;
83560;SDS011;73534;52.584;13.392;2024-01-11T09:38:58;27.85;;;13.05;;
83560;SDS011;73534;52.584;13.392;2024-01-11T09:41:24;32.42;;;12.65;;
83560;SDS011;73534;52.584;13.392;2024-01-11T09:43:50;29.85;;;12.88;;
83560;SDS011;73534;52.584;13.392;2024-01-11T09:46:17;33.15;;;13.85;;
83560;SDS011;73534;52.584;13.392;2024-01-11T09:48:42;30.60;;;14.63;;
83560;SDS011;73534;52.584;13.392;2024-01-11T09:51:09;26.90;;;13.70;;
83560;SDS011;73534;52.584;13.392;2024-01-11T09:53:36;25.83;;;12.07;;
83560;SDS011;73534;52.584;13.392;2024-01-11T09:56:04;28.25;;;12.43;;
83560;SDS011;73534;52.584;13.392;2024-01-11T09:58:33;29.30;;;12.68;;
83560;SDS011;73534;52.584;13.392;2024-01-11T10:01:01;26.67;;;12.88;;
83560;SDS011;73534;52.584;13.392;2024-01-11T10:03:26;28.40;;;12.32;;
83560;SDS011;73534;52.584;13.392;2024-01-11T10:05:54;26.88;;;12.43;;
83560;SDS011;73534;52.584;13.392;2024-01-11T10:08:21;28.17;;;12.85;;
83560;SDS011;73534;52.584;13.392;2024-01-11T10:10:47;23.60;;;12.20;;
83560;SDS011;73534;52.584;13.392;2024-01-11T10:13:13;28.20;;;13.70;;
83560;SDS011;73534;52.584;13.392;2024-01-11T10:15:38;22.58;;;11.35;;
83560;SDS011;73534;52.584;13.392;2024-01-11T10:18:04;22.17;;;9.77;;
83560;SDS011;73534;52.584;13.392;2024-01-11T10:20:29;24.30;;;10.88;;
83560;SDS011;73534;52.584;13.392;2024-01-11T10:22:57;21.10;;;10.88;;
83560;SDS011;73534;52.584;13.392;2024-01-11T10:25:23;22.08;;;11.73;;
83560;SDS011;73534;52.584;13.392;2024-01-11T10:27:48;22.13;;;10.40;;
83560;SDS011;73534;52.584;13.392;2024-01-11T10:30:14;21.80;;;9.88;;
83560;SDS011;73534;52.584;13.392;2024-01-11T10:32:44;22.88;;;10.75;;
83560;SDS011;73534;52.584;13.392;2024-01-11T10:35:10;20.90;;;9.75;;
83560;SDS011;73534;52.584;13.392;2024-01-11T10:37:36;23.65;;;10.13;;
83560;SDS011;73534;52.584;13.392;2024-01-11T10:40:04;24.27;;;11.20;;
83560;SDS011;73534;52.584;13.392;2024-01-11T10:42:41;22.45;;;11.90;;
83560;SDS011;73534;52.584;13.392;2024-01-11T10:45:10;22.20;;;11.55;;
83560;SDS011;73534;52.584;13.392;2024-01-11T10:47:39;21.02;;;11.32;;
83560;SDS011;73534;52.584;13.392;2024-01-11T10:50:10;20.83;;;10.82;;
83560;SDS011;73534;52.584;13.392;2024-01-11T10:52:36;16.52;;;10.00;;
83560;SDS011;73534;52.584;13.392;2024-01-11T10:55:09;20.52;;;10.55;;
83560;SDS011;73534;52.584;13.392;2024-01-11T10:57:35;24.17;;;11.40;;
83560;SDS011;73534;52.584;13.392;2024-01-11T11:00:01;21.88;;;11.02;;
83560;SDS011;73534;52.584;13.392;2024-01-11T11:04:53;21.40;;;10.20;;
83560;SDS011;73534;52.584;13.392;2024-01-11T11:07:19;22.67;;;11.38;;
83560;SDS011;73534;52.584;13.392;2024-01-11T11:09:45;20.40;;;10.80;;
83560;SDS011;73534;52.584;13.392;2024-01-11T11:12:11;26.17;;;12.60;;
83560;SDS011;73534;52.584;13.392;2024-01-11T11:14:36;23.63;;;12.18;;
83560;SDS011;73534;52.584;13.392;2024-01-11T11:17:03;22.48;;;11.18;;
83560;SDS011;73534;52.584;13.392;2024-01-11T11:19:29;25.63;;;12.10;;
83560;SDS011;73534;52.584;13.392;2024-01-11T11:21:55;25.45;;;11.65;;
83560;SDS011;73534;52.584;13.392;2024-01-11T11:24:20;26.58;;;14.05;;
83560;SDS011;73534;52.584;13.392;2024-01-11T11:26:45;25.45;;;13.07;;
83560;SDS011;73534;52.584;13.392;2024-01-11T11:29:11;23.77;;;13.45;;
83560;SDS011;73534;52.584;13.392;2024-01-11T11:31:43;29.50;;;13.05;;
83560;SDS011;73534;52.584;13.392;2024-01-11T11:34:11;24.23;;;11.80;;
83560;SDS011;73534;52.584;13.392;2024-01-11T11:36:39;26.33;;;12.55;;
83560;SDS011;73534;52.584;13.392;2024-01-11T11:39:04;23.85;;;13.50;;
83560;SDS011;73534;52.584;13.392;2024-01-11T11:41:30;24.08;;;11.95;;
83560;SDS011;73534;52.584;13.392;2024-01-11T11:44:00;28.13;;;12.93;;
83560;SDS011;73534;52.584;13.392;2024-01-11T11:46:26;24.13;;;12.07;;
83560;SDS011;73534;52.584;13.392;2024-01-11T11:48:52;28.13;;;12.95;;
83560;SDS011;73534;52.584;13.392;2024-01-11T11:51:19;27.05;;;13.15;;
83560;SDS011;73534;52.584;13.392;2024-01-11T11:53:46;26.45;;;12.70;;
83560;SDS011;73534;52.584;13.392;2024-01-11T11:56:16;29.17;;;13.48;;
83560;SDS011;73534;52.584;13.392;2024-01-11T11:58:42;31.73;;;13.93;;
83560;SDS011;73534;52.584;13.392;2024-01-11T12:01:08;29.10;;;13.00;;
83560;SDS011;73534;52.584;13.392;2024-01-11T12:03:41;32.47;;;14.38;;
83560;SDS011;73534;52.584;13.392;2024-01-11T12:06:10;28.02;;;12.73;;
83560;SDS011;73534;52.584;13.392;2024-01-11T12:08:36;28.92;;;13.65;;
83560;SDS011;73534;52.584;13.392;2024-01-11T12:11:02;33.72;;;15.00;;
83560;SDS011;73534;52.584;13.392;2024-01-11T12:13:29;29.80;;;12.05;;
83560;SDS011;73534;52.584;13.392;2024-01-11T12:15:56;33.65;;;14.40;;
83560;SDS011;73534;52.584;13.392;2024-01-11T12:18:21;32.53;;;14.05;;
83560;SDS011;73534;52.584;13.392;2024-01-11T12:20:47;28.80;;;13.45;;
83560;SDS011;73534;52.584;13.392;2024-01-11T12:23:12;27.55;;;11.68;;
83560;SDS011;73534;52.584;13.392;2024-01-11T12:25:39;27.65;;;13.48;;
83560;SDS011;73534;52.584;13.392;2024-01-11T12:28:05;31.45;;;12.13;;
83560;SDS011;73534;52.584;13.392;2024-01-11T12:30:31;34.03;;;14.10;;
83560;SDS011;73534;52.584;13.392;2024-01-11T12:32:56;30.92;;;13.85;;
83560;SDS011;73534;52.584;13.392;2024-01-11T12:35:22;30.83;;;12.52;;
83560;SDS011;73534;52.584;13.392;2024-01-11T12:38:04;29.75;;;13.23;;
83560;SDS011;73534;52.584;13.392;2024-01-11T12:40:34;26.52;;;12.85;;
83560;SDS011;73534;52.584;13.392;2024-01-11T12:43:02;29.05;;;12.68;;
83560;SDS011;73534;52.584;13.392;2024-01-11T12:45:28;22.70;;;12.45;;
83560;SDS011;73534;52.584;13.392;2024-01-11T12:47:54;27.67;;;12.65;;
83560;SDS011;73534;52.584;13.392;2024-01-11T12:50:21;23.75;;;11.75;;
83560;SDS011;73534;52.584;13.392;2024-01-11T12:52:47;18.35;;;10.38;;
83560;SDS011;73534;52.584;13.392;2024-01-11T12:55:29;26.33;;;12.52;;
83560;SDS011;73534;52.584;13.392;2024-01-11T12:58:07;23.30;;;11.73;;
83560;SDS011;73534;52.584;13.392;2024-01-11T13:00:34;21.50;;;10.77;;
83560;SDS011;73534;52.584;13.392;2024-01-11T13:02:59;25.55;;;10.50;;
83560;SDS011;73534;52.584;13.392;2024-01-11T13:05:25;19.88;;;10.60;;
83560;SDS011;73534;52.584;13.392;2024-01-11T13:07:50;24.50;;;11.88;;
83560;SDS011;73534;52.584;13.392;2024-01-11T13:10:16;20.05;;;10.73;;
83560;SDS011;73534;52.584;13.392;2024-01-11T13:12:42;25.63;;;11.35;;
83560;SDS011;73534;52.584;13.392;2024-01-11T13:15:07;21.50;;;10.60;;
83560;SDS011;73534;52.584;13.392;2024-01-11T13:17:32;18.25;;;9.55;;
83560;SDS011;73534;52.584;13.392;2024-01-11T13:19:58;26.80;;;11.95;;
83560;SDS011;73534;52.584;13.392;2024-01-11T13:22:24;22.77;;;10.80;;
83560;SDS011;73534;52.584;13.392;2024-01-11T13:24:49;18.65;;;11.35;;
83560;SDS011;73534;52.584;13.392;2024-01-11T13:27:15;21.08;;;10.35;;
83560;SDS011;73534;52.584;13.392;2024-01-11T13:29:40;20.58;;;10.13;;
83560;SDS011;73534;52.584;13.392;2024-01-11T13:32:05;18.98;;;9.88;;
83560;SDS011;73534;52.584;13.392;2024-01-11T13:34:31;21.02;;;11.43;;
83560;SDS011;73534;52.584;13.392;2024-01-11T13:36:56;20.42;;;11.10;;
83560;SDS011;73534;52.584;13.392;2024-01-11T13:39:24;21.20;;;10.13;;
83560;SDS011;73534;52.584;13.392;2024-01-11T13:41:50;18.98;;;10.05;;
83560;SDS011;73534;52.584;13.392;2024-01-11T13:44:15;27.33;;;13.65;;
83560;SDS011;73534;52.584;13.392;2024-01-11T13:46:41;26.25;;;13.75;;
83560;SDS011;73534;52.584;13.392;2024-01-11T13:49:06;25.17;;;12.52;;
83560;SDS011;73534;52.584;13.392;2024-01-11T13:51:31;23.75;;;11.55;;
83560;SDS011;73534;52.584;13.392;2024-01-11T13:53:57;23.95;;;9.98;;
83560;SDS011;73534;52.584;13.392;2024-01-11T13:56:24;22.55;;;10.63;;
83560;SDS011;73534;52.584;13.392;2024-01-11T13:58:49;22.02;;;10.77;;
83560;SDS011;73534;52.584;13.392;2024-01-11T14:01:14;24.48;;;10.30;;
83560;SDS011;73534;52.584;13.392;2024-01-11T14:03:39;21.20;;;10.73;;
83560;SDS011;73534;52.584;13.392;2024-01-11T14:06:05;24.20;;;10.80;;
83560;SDS011;73534;52.584;13.392;2024-01-11T14:08:30;20.25;;;10.52;;
83560;SDS011;73534;52.584;13.392;2024-01-11T14:10:56;20.98;;;10.07;;
83560;SDS011;73534;52.584;13.392;2024-01-11T14:13:21;19.67;;;11.13;;
83560;SDS011;73534;52.584;13.392;2024-01-11T14:15:46;20.40;;;9.82;;
83560;SDS011;73534;52.584;13.392;2024-01-11T14:18:13;18.73;;;10.50;;
83560;SDS011;73534;52.584;13.392;2024-01-11T14:20:38;19.70;;;9.27;;
83560;SDS011;73534;52.584;13.392;2024-01-11T14:23:03;20.42;;;10.07;;
83560;SDS011;73534;52.584;13.392;2024-01-11T14:25:29;19.52;;;9.40;;
83560;SDS011;73534;52.584;13.392;2024-01-11T14:27:55;18.83;;;9.27;;